Time;durP1;ratioP1;P1;durP2;ratioP2;P2;SDS_P1;SDS_P2;PMS_P1;PMS_P2;Temp;Humidity;BMP_temperature;BMP_pressure;BME280_temperature;BME280_humidity;BME280_pressure;Samples;Min_cycle;Max_cycle;Signal;HPM_P1;HPM_P2
2024/01/04 00:02:23;;;;;;;7.18;1.92;;;;;;;;;;5044703;28;20742;-80
2024/01/04 00:04:49;;;;;;;8.07;1.63;;;;;;;;;;5047235;28;20033;-80
2024/01/04 00:07:14;;;;;;;8.30;2.03;;;;;;;;;;5047725;28;20100;-79
2024/01/04 00:09:40;;;;;;;6.22;1.65;;;;;;;;;;5048750;28;20052;-79
2024/01/04 00:12:05;;;;;;;8.43;2.42;;;;;;;;;;5055871;28;20047;-80
2024/01/04 00:14:30;;;;;;;12.85;1.90;;;;;;;;;;5055727;28;20483;-80
2024/01/04 00:16:56;;;;;;;6.97;1.73;;;;;;;;;;5046706;28;20040;-80
2024/01/04 00:19:21;;;;;;;7.10;2.00;;;;;;;;;;5047127;28;20071;-80
2024/01/04 00:21:46;;;;;;;12.60;2.10;;;;;;;;;;5044910;28;20040;-80
2024/01/04 00:24:12;;;;;;;12.85;1.83;;;;;;;;;;5045031;28;20145;-80
2024/01/04 00:26:37;;;;;;;8.82;1.88;;;;;;;;;;5046496;28;20059;-80
2024/01/04 00:29:03;;;;;;;8.90;1.75;;;;;;;;;;5044531;28;20025;-80
2024/01/04 00:31:28;;;;;;;7.45;1.45;;;;;;;;;;5046164;28;20021;-80
2024/01/04 00:33:53;;;;;;;6.93;1.58;;;;;;;;;;5045904;28;20025;-80
2024/01/04 00:36:19;;;;;;;6.60;1.95;;;;;;;;;;5061752;28;20110;-80
2024/01/04 00:38:44;;;;;;;4.53;1.40;;;;;;;;;;5028249;28;20487;-80
2024/01/04 00:41:10;;;;;;;8.80;2.40;;;;;;;;;;5024425;28;20041;-80
2024/01/04 00:43:39;;;;;;;5.68;1.70;;;;;;;;;;5026528;28;20052;-80
2024/01/04 00:46:04;;;;;;;7.32;1.50;;;;;;;;;;5026540;28;20080;-79
2024/01/04 00:48:29;;;;;;;10.52;2.00;;;;;;;;;;5026536;28;20522;-80
2024/01/04 00:50:55;;;;;;;4.10;1.50;;;;;;;;;;5026445;28;20033;-80
2024/01/04 00:53:20;;;;;;;9.07;2.00;;;;;;;;;;5024936;28;20087;-80
2024/01/04 00:55:45;;;;;;;7.57;2.22;;;;;;;;;;5041464;28;20025;-80
2024/01/04 00:58:11;;;;;;;6.88;2.10;;;;;;;;;;5025301;28;20469;-79
2024/01/04 01:00:36;;;;;;;7.07;1.92;;;;;;;;;;5025475;28;20037;-80
2024/01/04 01:03:01;;;;;;;4.25;1.38;;;;;;;;;;5024420;28;20044;-80
2024/01/04 01:05:27;;;;;;;7.88;1.70;;;;;;;;;;5025380;28;20096;-79
2024/01/04 01:07:52;;;;;;;9.73;1.85;;;;;;;;;;5026120;28;20056;-80
2024/01/04 01:10:17;;;;;;;6.15;1.58;;;;;;;;;;5024587;28;20037;-79
2024/01/04 01:12:43;;;;;;;8.50;1.77;;;;;;;;;;5042241;28;20029;-79
2024/01/04 01:15:09;;;;;;;6.07;1.60;;;;;;;;;;5024616;28;20522;-80
2024/01/04 01:17:34;;;;;;;9.00;2.20;;;;;;;;;;5041550;28;20530;-80
2024/01/04 01:20:00;;;;;;;6.65;2.17;;;;;;;;;;5032915;28;20055;-80
2024/01/04 01:22:26;;;;;;;11.80;2.92;;;;;;;;;;5046971;28;20028;-80
2024/01/04 01:24:52;;;;;;;5.75;1.65;;;;;;;;;;5046083;28;20025;-80
2024/01/04 01:27:17;;;;;;;10.32;2.03;;;;;;;;;;5062129;28;20068;-80
2024/01/04 01:29:43;;;;;;;6.47;1.92;;;;;;;;;;5047952;28;20040;-80
2024/01/04 01:32:08;;;;;;;10.32;1.83;;;;;;;;;;5054733;28;20032;-80
2024/01/04 01:34:34;;;;;;;8.50;2.00;;;;;;;;;;5062666;28;20461;-80
2024/01/04 01:36:59;;;;;;;7.00;1.75;;;;;;;;;;5048896;28;20121;-80
2024/01/04 01:39:25;;;;;;;6.68;2.10;;;;;;;;;;5044552;28;20033;-79
2024/01/04 01:41:51;;;;;;;9.73;2.60;;;;;;;;;;5027770;28;20037;-79
2024/01/04 01:44:17;;;;;;;6.40;1.70;;;;;;;;;;5026639;28;20044;-80
2024/01/04 01:46:44;;;;;;;8.57;2.00;;;;;;;;;;5041810;28;20111;-80
2024/01/04 01:49:09;;;;;;;8.75;2.05;;;;;;;;;;5064514;28;20043;-80
2024/01/04 01:51:36;;;;;;;9.15;2.63;;;;;;;;;;5064035;28;20036;-80
2024/01/04 01:54:02;;;;;;;11.00;2.05;;;;;;;;;;5065827;28;20041;-80
2024/01/04 01:56:29;;;;;;;8.48;2.60;;;;;;;;;;5064827;28;20529;-80
2024/01/04 01:58:55;;;;;;;8.43;2.17;;;;;;;;;;5065644;28;20052;-80
2024/01/04 02:01:21;;;;;;;7.68;2.05;;;;;;;;;;5066100;28;20039;-79
2024/01/04 02:03:47;;;;;;;8.50;2.13;;;;;;;;;;5067243;28;20416;-80
2024/01/04 02:06:12;;;;;;;9.38;2.25;;;;;;;;;;5068229;28;20044;-79
2024/01/04 02:08:38;;;;;;;5.85;1.80;;;;;;;;;;5067821;28;20029;-80
2024/01/04 02:11:03;;;;;;;9.80;2.28;;;;;;;;;;5069134;28;20147;-80
2024/01/04 02:13:29;;;;;;;7.57;2.15;;;;;;;;;;5068708;28;20017;-80
2024/01/04 02:15:54;;;;;;;9.75;2.05;;;;;;;;;;5070080;28;20036;-79
2024/01/04 02:18:19;;;;;;;11.05;2.33;;;;;;;;;;5069507;28;20051;-80
2024/01/04 02:20:45;;;;;;;11.50;2.20;;;;;;;;;;5053535;28;20037;-80
2024/01/04 02:23:15;;;;;;;5.82;1.80;;;;;;;;;;5047650;28;20474;-80
2024/01/04 02:25:41;;;;;;;8.65;1.60;;;;;;;;;;5049434;28;20558;-80
2024/01/04 02:28:07;;;;;;;6.80;1.73;;;;;;;;;;5048337;28;20076;-80
2024/01/04 02:30:32;;;;;;;7.97;2.28;;;;;;;;;;5047917;28;20060;-79
2024/01/04 02:32:58;;;;;;;5.30;1.60;;;;;;;;;;5061436;28;20060;-80
2024/01/04 02:35:23;;;;;;;8.60;1.80;;;;;;;;;;5047928;28;20041;-80
2024/01/04 02:37:49;;;;;;;10.90;2.08;;;;;;;;;;5038970;28;20395;-80
2024/01/04 02:40:14;;;;;;;8.82;2.10;;;;;;;;;;5028951;28;20028;-79
2024/01/04 02:42:39;;;;;;;9.85;1.80;;;;;;;;;;5028549;28;20088;-80
2024/01/04 02:45:05;;;;;;;8.48;1.80;;;;;;;;;;5028502;28;20034;-80
2024/01/04 02:47:31;;;;;;;7.85;2.10;;;;;;;;;;5029648;28;20033;-80
2024/01/04 02:49:56;;;;;;;8.90;1.45;;;;;;;;;;5030810;28;20030;-80
2024/01/04 02:52:21;;;;;;;8.05;1.95;;;;;;;;;;5036813;28;20086;-80
2024/01/04 02:54:47;;;;;;;19.63;2.25;;;;;;;;;;5038618;28;20032;-80
2024/01/04 02:57:12;;;;;;;8.63;1.52;;;;;;;;;;5029245;28;20410;-80
2024/01/04 02:59:37;;;;;;;9.70;2.08;;;;;;;;;;5036802;28;20441;-80
2024/01/04 03:02:03;;;;;;;5.60;1.65;;;;;;;;;;5048396;28;20553;-80
2024/01/04 03:04:28;;;;;;;6.53;1.33;;;;;;;;;;5046519;28;20339;-80
2024/01/04 03:06:53;;;;;;;5.78;1.52;;;;;;;;;;5048683;28;20037;-80
2024/01/04 03:09:19;;;;;;;5.80;1.45;;;;;;;;;;5046452;28;20071;-80
2024/01/04 03:11:45;;;;;;;6.82;1.52;;;;;;;;;;5048417;28;20043;-81
2024/01/04 03:14:11;;;;;;;6.35;1.45;;;;;;;;;;5047274;28;20044;-80
2024/01/04 03:16:36;;;;;;;4.80;1.30;;;;;;;;;;5047934;28;20040;-80
2024/01/04 03:19:01;;;;;;;5.63;1.50;;;;;;;;;;5046151;28;20037;-79
2024/01/04 03:21:27;;;;;;;7.63;1.52;;;;;;;;;;5027320;28;20038;-79
2024/01/04 03:23:52;;;;;;;12.10;1.67;;;;;;;;;;5026242;28;20068;-80
2024/01/04 03:26:17;;;;;;;5.85;1.65;;;;;;;;;;5027969;28;20064;-80
2024/01/04 03:28:43;;;;;;;8.23;1.95;;;;;;;;;;5027338;28;20388;-79
2024/01/04 03:31:08;;;;;;;7.00;1.30;;;;;;;;;;5027879;28;20025;-80
2024/01/04 03:33:33;;;;;;;7.88;1.40;;;;;;;;;;5027654;28;20041;-79
2024/01/04 03:35:59;;;;;;;5.45;1.13;;;;;;;;;;5027845;28;20037;-80
2024/01/04 03:38:24;;;;;;;5.18;1.63;;;;;;;;;;5038963;28;20052;-80
2024/01/04 03:40:50;;;;;;;7.75;1.67;;;;;;;;;;5046934;28;20481;-79
2024/01/04 03:43:15;;;;;;;4.22;1.17;;;;;;;;;;5047091;28;20037;-79
2024/01/04 03:45:40;;;;;;;5.07;1.45;;;;;;;;;;5048219;28;20399;-80
2024/01/04 03:48:06;;;;;;;5.32;1.60;;;;;;;;;;5045521;28;20033;-80
2024/01/04 03:50:31;;;;;;;9.68;1.30;;;;;;;;;;5046470;28;20037;-80
2024/01/04 03:52:57;;;;;;;9.00;1.63;;;;;;;;;;5047348;28;20579;-79
2024/01/04 03:55:22;;;;;;;6.07;1.70;;;;;;;;;;5047069;28;20062;-80
2024/01/04 03:57:50;;;;;;;7.43;1.40;;;;;;;;;;5047937;28;20060;-79
2024/01/04 04:00:16;;;;;;;9.88;1.77;;;;;;;;;;5046149;28;20037;-80
2024/01/04 04:02:41;;;;;;;5.72;1.73;;;;;;;;;;5047966;28;20051;-80
2024/01/04 04:05:07;;;;;;;3.92;1.20;;;;;;;;;;5048028;28;20064;-79
2024/01/04 04:07:32;;;;;;;6.28;1.50;;;;;;;;;;5046877;28;20102;-80
2024/01/04 04:09:58;;;;;;;3.97;1.40;;;;;;;;;;5050063;28;20040;-80
2024/01/04 04:12:25;;;;;;;5.10;1.77;;;;;;;;;;5056422;28;20041;-80
2024/01/04 04:14:51;;;;;;;6.43;1.65;;;;;;;;;;5063977;28;20037;-80
2024/01/04 04:17:20;;;;;;;4.70;1.33;;;;;;;;;;5052133;28;20041;-80
2024/01/04 04:19:46;;;;;;;12.82;2.28;;;;;;;;;;5050644;28;20062;-80
2024/01/04 04:22:11;;;;;;;6.43;1.50;;;;;;;;;;5047398;28;20448;-80
2024/01/04 04:24:36;;;;;;;4.78;1.40;;;;;;;;;;5047096;28;20044;-80
2024/01/04 04:27:02;;;;;;;9.48;2.08;;;;;;;;;;5044475;28;20048;-80
2024/01/04 04:29:27;;;;;;;4.72;1.45;;;;;;;;;;5045710;28;21001;-80
2024/01/04 04:31:55;;;;;;;7.72;1.40;;;;;;;;;;5047057;28;20549;-80
2024/01/04 04:34:20;;;;;;;4.80;1.25;;;;;;;;;;5045021;28;20029;-79
2024/01/04 04:36:45;;;;;;;8.32;2.50;;;;;;;;;;5045180;28;20104;-80
2024/01/04 04:39:11;;;;;;;4.82;1.30;;;;;;;;;;5026651;28;20044;-80
2024/01/04 04:41:38;;;;;;;11.27;2.45;;;;;;;;;;5026714;28;20072;-80
2024/01/04 04:44:04;;;;;;;6.38;1.27;;;;;;;;;;5026295;28;20025;-80
2024/01/04 04:46:29;;;;;;;6.22;1.30;;;;;;;;;;5026694;28;20033;-80
2024/01/04 04:48:55;;;;;;;11.60;2.05;;;;;;;;;;5024963;28;20040;-79
2024/01/04 04:51:25;;;;;;;5.80;1.10;;;;;;;;;;5024901;28;20112;-80
2024/01/04 04:53:51;;;;;;;6.20;1.48;;;;;;;;;;5025025;28;20073;-79
2024/01/04 04:56:16;;;;;;;11.55;1.58;;;;;;;;;;5026715;28;20064;-81
2024/01/04 04:58:42;;;;;;;4.78;1.10;;;;;;;;;;5025307;28;20862;-80
2024/01/04 05:01:08;;;;;;;8.57;1.48;;;;;;;;;;5025377;28;20586;-80
2024/01/04 05:03:34;;;;;;;7.10;1.45;;;;;;;;;;5026011;28;20108;-81
2024/01/04 05:05:59;;;;;;;5.72;1.10;;;;;;;;;;5025278;28;20041;-80
2024/01/04 05:08:25;;;;;;;7.50;1.20;;;;;;;;;;5026201;28;20505;-80
2024/01/04 05:10:50;;;;;;;6.10;1.48;;;;;;;;;;5041793;28;20355;-80
2024/01/04 05:13:15;;;;;;;5.57;1.17;;;;;;;;;;5040811;28;20033;-80
2024/01/04 05:15:42;;;;;;;7.03;1.30;;;;;;;;;;5026733;28;20418;-80
2024/01/04 05:18:09;;;;;;;11.07;1.48;;;;;;;;;;5025199;28;20045;-81
2024/01/04 05:20:35;;;;;;;7.78;1.00;;;;;;;;;;5054090;28;20123;-80
2024/01/04 05:23:00;;;;;;;3.30;1.15;;;;;;;;;;5047313;28;20116;-80
2024/01/04 05:25:25;;;;;;;6.68;1.00;;;;;;;;;;5062191;28;20055;-80
2024/01/04 05:27:51;;;;;;;5.93;1.58;;;;;;;;;;5045477;28;20029;-81
2024/01/04 05:30:17;;;;;;;4.90;1.38;;;;;;;;;;5048734;28;20088;-81
2024/01/04 05:32:43;;;;;;;3.38;1.17;;;;;;;;;;5055385;28;20064;-80
2024/01/04 05:35:09;;;;;;;5.18;0.90;;;;;;;;;;5053585;28;20041;-80
2024/01/04 05:37:35;;;;;;;4.75;1.30;;;;;;;;;;5055972;28;20104;-80
2024/01/04 05:40:01;;;;;;;6.40;1.25;;;;;;;;;;5030469;28;20502;-81
2024/01/04 05:42:27;;;;;;;2.38;1.20;;;;;;;;;;5028814;28;20084;-81
2024/01/04 05:44:52;;;;;;;4.35;2.03;;;;;;;;;;5028788;28;20389;-80
2024/01/04 05:47:17;;;;;;;4.43;1.48;;;;;;;;;;5030386;28;20116;-80
2024/01/04 05:49:43;;;;;;;4.07;1.60;;;;;;;;;;5028173;28;20029;-80
2024/01/04 05:52:08;;;;;;;4.68;1.40;;;;;;;;;;5028958;28;20048;-80
2024/01/04 05:54:34;;;;;;;4.93;1.38;;;;;;;;;;5028288;28;20593;-80
2024/01/04 05:56:59;;;;;;;3.22;1.27;;;;;;;;;;5028712;28;20056;-79
2024/01/04 05:59:24;;;;;;;2.97;1.38;;;;;;;;;;5045119;28;20120;-80
2024/01/04 06:01:50;;;;;;;6.00;1.75;;;;;;;;;;5029364;28;20147;-80
2024/01/04 06:04:16;;;;;;;5.07;1.30;;;;;;;;;;5044990;28;20434;-80
2024/01/04 06:06:41;;;;;;;5.55;0.90;;;;;;;;;;5029837;28;20029;-80
2024/01/04 06:09:07;;;;;;;1.48;0.93;;;;;;;;;;5029197;28;20045;-79
2024/01/04 06:11:32;;;;;;;10.45;2.50;;;;;;;;;;5044181;28;20195;-80
2024/01/04 06:13:57;;;;;;;5.35;1.48;;;;;;;;;;5029165;28;20040;-80
2024/01/04 06:16:23;;;;;;;10.07;2.17;;;;;;;;;;5029376;28;20512;-79
2024/01/04 06:18:48;;;;;;;7.43;2.33;;;;;;;;;;5029959;28;20025;-80
2024/01/04 06:21:15;;;;;;;7.65;1.85;;;;;;;;;;5062276;28;20048;-79
2024/01/04 06:23:41;;;;;;;6.40;1.90;;;;;;;;;;5048157;28;20551;-80
2024/01/04 06:26:06;;;;;;;6.88;1.45;;;;;;;;;;5047468;28;20041;-80
2024/01/04 06:28:32;;;;;;;7.40;1.60;;;;;;;;;;5048604;28;20043;-80
2024/01/04 06:30:57;;;;;;;7.88;1.67;;;;;;;;;;5047357;28;20310;-80
2024/01/04 06:33:22;;;;;;;16.00;2.03;;;;;;;;;;5064644;28;20101;-80
2024/01/04 06:35:48;;;;;;;8.48;1.48;;;;;;;;;;5049163;28;20166;-80
2024/01/04 06:38:13;;;;;;;11.30;1.80;;;;;;;;;;5057667;28;20057;-80
2024/01/04 06:40:39;;;;;;;14.23;2.35;;;;;;;;;;5064009;28;21056;-80
2024/01/04 06:43:08;;;;;;;18.67;2.42;;;;;;;;;;5065719;28;20071;-80
2024/01/04 06:45:35;;;;;;;8.98;1.30;;;;;;;;;;5049213;28;20073;-80
2024/01/04 06:48:01;;;;;;;14.55;2.65;;;;;;;;;;5046564;28;20043;-80
2024/01/04 06:50:26;;;;;;;17.63;2.13;;;;;;;;;;5050902;28;20538;-81
2024/01/04 06:52:51;;;;;;;7.55;1.85;;;;;;;;;;5059931;28;20133;-80
2024/01/04 06:55:18;;;;;;;13.95;1.73;;;;;;;;;;5061659;28;20029;-80
2024/01/04 06:57:43;;;;;;;6.00;1.33;;;;;;;;;;5055347;28;20581;-79
2024/01/04 07:00:09;;;;;;;10.32;1.25;;;;;;;;;;5043391;28;20109;-80
2024/01/04 07:02:35;;;;;;;18.95;1.85;;;;;;;;;;5045919;28;20116;-80
2024/01/04 07:05:03;;;;;;;11.75;1.35;;;;;;;;;;5047929;28;20128;-81
2024/01/04 07:07:30;;;;;;;14.45;2.13;;;;;;;;;;5028763;28;20195;-80
2024/01/04 07:09:56;;;;;;;7.75;1.27;;;;;;;;;;5027889;28;20112;-81
2024/01/04 07:12:21;;;;;;;12.05;2.28;;;;;;;;;;5043978;28;20129;-81
2024/01/04 07:14:47;;;;;;;13.02;1.85;;;;;;;;;;5029738;28;20041;-80
2024/01/04 07:17:13;;;;;;;14.73;1.95;;;;;;;;;;5040320;28;20044;-80
2024/01/04 07:19:41;;;;;;;13.23;2.08;;;;;;;;;;5046735;28;20086;-80
2024/01/04 07:22:06;;;;;;;17.85;3.03;;;;;;;;;;5046180;28;20119;-80
2024/01/04 07:24:32;;;;;;;20.30;2.70;;;;;;;;;;5045578;28;20136;-80
2024/01/04 07:26:57;;;;;;;15.00;2.30;;;;;;;;;;5047789;28;20586;-81
2024/01/04 07:29:23;;;;;;;15.15;2.15;;;;;;;;;;5045699;28;20407;-81
2024/01/04 07:31:49;;;;;;;8.20;1.80;;;;;;;;;;5040433;28;20060;-80
2024/01/04 07:34:14;;;;;;;11.70;1.80;;;;;;;;;;5027455;28;20541;-79
2024/01/04 07:36:39;;;;;;;18.95;2.08;;;;;;;;;;5026160;28;20174;-79
2024/01/04 07:39:05;;;;;;;9.48;1.73;;;;;;;;;;5047674;28;20037;-79
2024/01/04 07:41:30;;;;;;;13.52;1.85;;;;;;;;;;5047034;28;20045;-79
2024/01/04 07:43:57;;;;;;;16.50;2.00;;;;;;;;;;5046951;28;20075;-80
2024/01/04 07:46:22;;;;;;;8.43;1.55;;;;;;;;;;5042668;28;20037;-79
2024/01/04 07:48:48;;;;;;;16.30;2.25;;;;;;;;;;5060751;28;20457;-80
2024/01/04 07:51:13;;;;;;;21.35;2.53;;;;;;;;;;5044526;28;20079;-80
2024/01/04 07:53:40;;;;;;;17.30;3.08;;;;;;;;;;5046325;28;20044;-79
2024/01/04 07:56:05;;;;;;;10.95;2.20;;;;;;;;;;5044302;28;20033;-79
2024/01/04 07:58:31;;;;;;;14.55;2.28;;;;;;;;;;5041628;28;20418;-79
2024/01/04 08:00:56;;;;;;;14.82;2.13;;;;;;;;;;5030224;28;20060;-78
2024/01/04 08:03:21;;;;;;;19.52;2.75;;;;;;;;;;5027444;28;20069;-78
2024/01/04 08:05:47;;;;;;;16.35;2.38;;;;;;;;;;5037928;28;20502;-79
2024/01/04 08:08:12;;;;;;;14.45;2.05;;;;;;;;;;5039685;28;20132;-79
2024/01/04 08:10:37;;;;;;;16.67;2.38;;;;;;;;;;5050333;28;20041;-79
2024/01/04 08:13:03;;;;;;;13.13;2.75;;;;;;;;;;5056700;28;20013;-81
2024/01/04 08:15:33;;;;;;;16.92;2.33;;;;;;;;;;5055543;28;20056;-80
2024/01/04 08:17:59;;;;;;;17.08;2.60;;;;;;;;;;5045590;28;20130;-80
2024/01/04 08:20:24;;;;;;;15.52;2.55;;;;;;;;;;5042705;28;20069;-80
2024/01/04 08:22:50;;;;;;;16.83;2.28;;;;;;;;;;5043839;28;20043;-80
2024/01/04 08:25:15;;;;;;;11.82;2.17;;;;;;;;;;5043585;28;20091;-80
2024/01/04 08:27:41;;;;;;;17.88;2.58;;;;;;;;;;5043659;28;20045;-80
2024/01/04 08:30:07;;;;;;;12.93;2.50;;;;;;;;;;5043556;28;20052;-80
2024/01/04 08:32:32;;;;;;;20.98;2.92;;;;;;;;;;5060716;28;20136;-80
2024/01/04 08:34:57;;;;;;;13.85;2.00;;;;;;;;;;5045047;28;20556;-80
2024/01/04 08:37:23;;;;;;;14.43;1.92;;;;;;;;;;5043002;28;20123;-80
2024/01/04 08:39:49;;;;;;;16.20;2.20;;;;;;;;;;5043321;28;20029;-80
2024/01/04 08:42:15;;;;;;;16.15;2.30;;;;;;;;;;5045517;28;20037;-80
2024/01/04 08:44:41;;;;;;;15.60;2.28;;;;;;;;;;5044750;28;20044;-80
2024/01/04 08:47:06;;;;;;;9.70;2.10;;;;;;;;;;5044098;28;20036;-80
2024/01/04 08:49:32;;;;;;;9.25;2.65;;;;;;;;;;5043443;28;20027;-80
2024/01/04 08:51:57;;;;;;;11.45;1.63;;;;;;;;;;5044369;28;20021;-80
2024/01/04 08:54:23;;;;;;;11.77;2.10;;;;;;;;;;5038533;28;20132;-78
2024/01/04 08:56:48;;;;;;;13.20;1.67;;;;;;;;;;5035828;28;20049;-78
2024/01/04 08:59:14;;;;;;;11.43;1.60;;;;;;;;;;5028928;28;20460;-78
2024/01/04 09:01:39;;;;;;;14.15;2.95;;;;;;;;;;5031434;28;20127;-79
2024/01/04 09:04:05;;;;;;;11.02;2.03;;;;;;;;;;5032513;28;20048;-78
2024/01/04 09:06:32;;;;;;;17.35;1.98;;;;;;;;;;5039671;28;20060;-80
2024/01/04 09:08:59;;;;;;;10.85;1.60;;;;;;;;;;5039911;28;20034;-80
2024/01/04 09:11:28;;;;;;;13.00;2.17;;;;;;;;;;5031528;28;20120;-80
2024/01/04 09:13:53;;;;;;;18.92;2.08;;;;;;;;;;5035103;28;20039;-79
2024/01/04 09:16:18;;;;;;;21.35;2.28;;;;;;;;;;5027441;28;20038;-80
2024/01/04 09:18:44;;;;;;;11.30;2.08;;;;;;;;;;5032941;28;20046;-80
2024/01/04 09:21:09;;;;;;;11.40;1.80;;;;;;;;;;5027828;28;20045;-80
2024/01/04 09:23:35;;;;;;;12.18;2.20;;;;;;;;;;5032138;28;20048;-80
2024/01/04 09:26:08;;;;;;;12.40;2.40;;;;;;;;;;5037849;28;20041;-80
2024/01/04 09:28:33;;;;;;;;;;;;;;;;;;5036194;28;20045;-80
2024/01/04 09:30:59;;;;;;;12.00;2.17;;;;;;;;;;5056349;28;19970;-80
2024/01/04 09:33:24;;;;;;;15.27;1.75;;;;;;;;;;5052849;28;20044;-79
2024/01/04 09:35:50;;;;;;;6.65;1.60;;;;;;;;;;5039555;28;20568;-79
2024/01/04 09:38:15;;;;;;;13.85;1.85;;;;;;;;;;5032452;28;20414;-79
2024/01/04 09:40:40;;;;;;;14.68;2.13;;;;;;;;;;5029206;28;20037;-79
2024/01/04 09:43:08;;;;;;;12.55;2.75;;;;;;;;;;5027474;28;20032;-77
2024/01/04 09:45:37;;;;;;;15.00;2.45;;;;;;;;;;5031345;28;20041;-79
2024/01/04 09:48:06;;;;;;;9.32;1.95;;;;;;;;;;5048376;28;20045;-78
2024/01/04 09:50:34;;;;;;;18.42;2.45;;;;;;;;;;5047311;28;20083;-79
2024/01/04 09:53:00;;;;;;;10.70;2.05;;;;;;;;;;5043606;28;20044;-79
2024/01/04 09:55:26;;;;;;;13.40;2.05;;;;;;;;;;5028076;28;20048;-78
2024/01/04 09:57:51;;;;;;;10.90;1.83;;;;;;;;;;5028397;28;20021;-78
2024/01/04 10:00:17;;;;;;;16.08;1.98;;;;;;;;;;5026903;28;20045;-78
2024/01/04 10:02:43;;;;;;;9.77;1.70;;;;;;;;;;5031627;28;20045;-78
2024/01/04 10:05:17;;;;;;;9.23;2.38;;;;;;;;;;5042409;28;20041;-76
2024/01/04 10:07:48;;;;;;;14.13;2.25;;;;;;;;;;5044080;28;20037;-76
2024/01/04 10:10:19;;;;;;;11.05;1.90;;;;;;;;;;5047739;28;20047;-80
2024/01/04 10:12:47;;;;;;;10.15;2.83;;;;;;;;;;5045835;28;20029;-79
2024/01/04 10:15:15;;;;;;;11.75;1.80;;;;;;;;;;5047311;28;20041;-78
2024/01/04 10:17:41;;;;;;;19.25;2.22;;;;;;;;;;5056518;28;20156;-79
2024/01/04 10:20:08;;;;;;;10.48;1.92;;;;;;;;;;5045493;28;20417;-78
2024/01/04 10:22:33;;;;;;;8.57;1.73;;;;;;;;;;5045070;28;20238;-77
2024/01/04 10:25:09;;;;;;;10.85;1.90;;;;;;;;;;5046385;28;20194;-77
2024/01/04 10:27:35;;;;;;;8.25;2.47;;;;;;;;;;5041789;28;20039;-77
2024/01/04 10:30:05;;;;;;;6.07;1.73;;;;;;;;;;5046350;28;20092;-77
2024/01/04 10:32:31;;;;;;;12.55;2.33;;;;;;;;;;5046549;28;20041;-77
2024/01/04 10:35:08;;;;;;;12.35;2.38;;;;;;;;;;5038158;28;20082;-77
2024/01/04 10:37:35;;;;;;;16.98;2.03;;;;;;;;;;5036116;28;20045;-78
2024/01/04 10:40:05;;;;;;;10.38;2.08;;;;;;;;;;5025194;28;20036;-79
2024/01/04 10:42:32;;;;;;;13.82;3.05;;;;;;;;;;5026709;28;20041;-77
2024/01/04 10:44:59;;;;;;;8.68;2.20;;;;;;;;;;5041193;28;20044;-77
2024/01/04 10:47:24;;;;;;;11.48;2.10;;;;;;;;;;5047163;28;20067;-76
2024/01/04 10:49:57;;;;;;;13.45;2.28;;;;;;;;;;5052965;28;20156;-77
2024/01/04 10:52:30;;;;;;;15.45;2.80;;;;;;;;;;5055514;28;20041;-76
2024/01/04 10:54:56;;;;;;;;;;;;;;;;;;5068052;28;20055;-76
2024/01/04 10:57:22;;;;;;;14.43;2.25;;;;;;;;;;5045488;28;19970;-76
2024/01/04 10:59:48;;;;;;;12.10;2.35;;;;;;;;;;5043877;28;20033;-76
2024/01/04 11:02:15;;;;;;;13.57;1.85;;;;;;;;;;5040936;28;20025;-76
2024/01/04 11:04:41;;;;;;;10.63;2.38;;;;;;;;;;5056401;28;20075;-76
2024/01/04 11:07:07;;;;;;;8.90;2.40;;;;;;;;;;5040767;28;20033;-76
2024/01/04 11:09:34;;;;;;;17.25;2.20;;;;;;;;;;5041753;28;20067;-76
2024/01/04 11:12:02;;;;;;;14.90;2.67;;;;;;;;;;5040495;28;20552;-76
2024/01/04 11:14:28;;;;;;;10.30;2.85;;;;;;;;;;5039709;28;20091;-76
2024/01/04 11:17:02;;;;;;;17.58;2.80;;;;;;;;;;5038902;28;20033;-76
2024/01/04 11:19:33;;;;;;;11.90;2.22;;;;;;;;;;5032267;28;20021;-76
2024/01/04 11:22:26;;;;;;;11.43;2.65;;;;;;;;;;5035909;28;20672;-77
2024/01/04 11:25:03;;;;;;;13.65;2.97;;;;;;;;;;5035021;28;20087;-76
2024/01/04 11:27:31;;;;;;;14.80;3.15;;;;;;;;;;5025107;28;20130;-77
2024/01/04 11:29:56;;;;;;;14.90;2.72;;;;;;;;;;5035267;28;20037;-76
2024/01/04 11:32:24;;;;;;;11.85;3.20;;;;;;;;;;5042347;28;20102;-77
2024/01/04 11:34:49;;;;;;;15.07;2.97;;;;;;;;;;5042082;28;20469;-77
2024/01/04 11:37:20;;;;;;;11.55;2.70;;;;;;;;;;5038289;28;20025;-77
2024/01/04 11:39:57;;;;;;;10.88;2.00;;;;;;;;;;5039358;28;20033;-76
2024/01/04 11:42:37;;;;;;;13.50;3.50;;;;;;;;;;5021644;28;20056;-77
2024/01/04 11:45:04;;;;;;;12.73;2.72;;;;;;;;;;5023853;28;20051;-77
2024/01/04 11:47:40;;;;;;;10.75;3.03;;;;;;;;;;5023231;28;20132;-77
2024/01/04 11:50:28;;;;;;;10.85;2.47;;;;;;;;;;5023624;28;20029;-76
2024/01/04 11:53:07;;;;;;;9.10;2.53;;;;;;;;;;5039626;28;20030;-76
2024/01/04 11:55:36;;;;;;;12.18;2.80;;;;;;;;;;5021767;28;20044;-76
2024/01/04 11:58:14;;;;;;;14.90;2.83;;;;;;;;;;5023528;28;20064;-76
2024/01/04 12:00:50;;;;;;;13.95;2.47;;;;;;;;;;5022724;28;20064;-77
2024/01/04 12:03:17;;;;;;;16.52;2.85;;;;;;;;;;5022656;28;20057;-77
2024/01/04 12:05:47;;;;;;;6.68;1.77;;;;;;;;;;5026044;28;20041;-77
2024/01/04 12:08:29;;;;;;;9.90;2.75;;;;;;;;;;5031076;28;20065;-76
2024/01/04 12:10:56;;;;;;;15.40;3.28;;;;;;;;;;5037556;28;20041;-76
2024/01/04 12:13:22;;;;;;;9.55;2.75;;;;;;;;;;5038519;28;20025;-76
2024/01/04 12:15:49;;;;;;;12.15;2.78;;;;;;;;;;5028893;28;20075;-77
2024/01/04 12:18:14;;;;;;;14.55;2.90;;;;;;;;;;5025208;28;20038;-77
2024/01/04 12:20:40;;;;;;;12.65;2.85;;;;;;;;;;5037241;28;20123;-77
2024/01/04 12:23:07;;;;;;;9.20;2.42;;;;;;;;;;5043571;28;20033;-76
2024/01/04 12:25:35;;;;;;;10.43;2.60;;;;;;;;;;5041622;28;20051;-76
2024/01/04 12:28:02;;;;;;;12.13;2.50;;;;;;;;;;5037234;28;20021;-76
2024/01/04 12:30:29;;;;;;;9.00;2.53;;;;;;;;;;5037453;28;20036;-76
2024/01/04 12:33:00;;;;;;;12.80;2.60;;;;;;;;;;5026877;28;20064;-76
2024/01/04 12:35:26;;;;;;;12.20;2.30;;;;;;;;;;5023052;28;20037;-76
2024/01/04 12:38:06;;;;;;;10.90;2.40;;;;;;;;;;5048608;28;20082;-76
2024/01/04 12:40:39;;;;;;;15.00;2.40;;;;;;;;;;5026429;28;20056;-76
2024/01/04 12:43:05;;;;;;;13.13;2.15;;;;;;;;;;5023337;28;20080;-78
2024/01/04 12:45:33;;;;;;;8.57;3.35;;;;;;;;;;5033188;28;20131;-80
2024/01/04 12:48:03;;;;;;;10.32;2.30;;;;;;;;;;5031830;28;20124;-78
2024/01/04 12:50:29;;;;;;;14.00;2.80;;;;;;;;;;5036133;28;20037;-79
2024/01/04 12:52:55;;;;;;;10.77;2.78;;;;;;;;;;5037023;28;20580;-78
2024/01/04 12:55:21;;;;;;;12.60;2.85;;;;;;;;;;5033596;28;20061;-79
2024/01/04 12:57:46;;;;;;;9.85;2.08;;;;;;;;;;5039702;28;20041;-79
2024/01/04 13:00:14;;;;;;;13.20;2.30;;;;;;;;;;5033229;28;20110;-83
2024/01/04 13:02:39;;;;;;;10.52;2.13;;;;;;;;;;5033833;28;20060;-81
2024/01/04 13:05:05;;;;;;;13.02;2.00;;;;;;;;;;5037068;28;20102;-81
2024/01/04 13:07:30;;;;;;;13.30;2.08;;;;;;;;;;5033245;28;20029;-81
2024/01/04 13:09:56;;;;;;;14.02;2.20;;;;;;;;;;5027037;28;20033;-83
2024/01/04 13:12:22;;;;;;;6.13;2.00;;;;;;;;;;5026273;28;20795;-82
2024/01/04 13:14:47;;;;;;;6.15;2.03;;;;;;;;;;5038291;28;20045;-81
2024/01/04 13:17:13;;;;;;;8.38;2.00;;;;;;;;;;5033005;28;20669;-80
2024/01/04 13:19:38;;;;;;;8.25;1.90;;;;;;;;;;5033333;28;20053;-82
2024/01/04 13:22:03;;;;;;;7.30;2.22;;;;;;;;;;5039015;28;20037;-83
2024/01/04 13:24:29;;;;;;;8.95;2.28;;;;;;;;;;5046228;28;20045;-80
2024/01/04 13:26:55;;;;;;;8.27;1.60;;;;;;;;;;5039242;28;21070;-83
2024/01/04 13:29:20;;;;;;;10.45;2.40;;;;;;;;;;5043884;28;20048;-83
2024/01/04 13:31:47;;;;;;;10.90;1.70;;;;;;;;;;5041546;28;20051;-81
2024/01/04 13:34:12;;;;;;;9.20;1.70;;;;;;;;;;5036936;28;20072;-80
2024/01/04 13:36:38;;;;;;;12.50;1.90;;;;;;;;;;5031939;28;20041;-81
2024/01/04 13:39:04;;;;;;;9.07;1.80;;;;;;;;;;5036037;28;21204;-82
2024/01/04 13:41:30;;;;;;;8.57;1.70;;;;;;;;;;5027185;28;20068;-81
2024/01/04 13:43:55;;;;;;;11.80;2.03;;;;;;;;;;5035856;28;20548;-81
2024/01/04 13:46:20;;;;;;;9.50;1.92;;;;;;;;;;5036720;28;20040;-81
2024/01/04 13:48:46;;;;;;;5.97;1.85;;;;;;;;;;5029037;28;20022;-82
2024/01/04 13:51:12;;;;;;;8.45;1.73;;;;;;;;;;5035152;28;20042;-80
2024/01/04 13:53:37;;;;;;;12.32;1.75;;;;;;;;;;5032524;28;20045;-83
2024/01/04 13:56:03;;;;;;;10.23;1.60;;;;;;;;;;5045327;28;20387;-79
2024/01/04 13:58:30;;;;;;;7.97;1.80;;;;;;;;;;5039449;28;20127;-81
2024/01/04 14:00:56;;;;;;;8.63;1.52;;;;;;;;;;5032042;28;20517;-82
2024/01/04 14:03:21;;;;;;;6.32;1.45;;;;;;;;;;5054063;28;20052;-81
2024/01/04 14:05:47;;;;;;;6.00;1.55;;;;;;;;;;5050747;28;20509;-84
2024/01/04 14:08:14;;;;;;;7.47;2.03;;;;;;;;;;5031578;28;20038;-82
2024/01/04 14:10:42;;;;;;;8.77;1.65;;;;;;;;;;5039141;28;20041;-84
2024/01/04 14:13:08;;;;;;;7.43;1.77;;;;;;;;;;5037793;28;20029;-83
2024/01/04 14:15:34;;;;;;;8.93;1.40;;;;;;;;;;5039885;28;20033;-83
2024/01/04 14:17:59;;;;;;;6.45;1.75;;;;;;;;;;5043226;28;20033;-82
2024/01/04 14:20:28;;;;;;;7.30;1.70;;;;;;;;;;5037212;28;20052;-84
2024/01/04 14:22:53;;;;;;;8.35;1.70;;;;;;;;;;5033922;28;20040;-80
2024/01/04 14:25:20;;;;;;;3.97;0.90;;;;;;;;;;5037438;28;20055;-83
2024/01/04 14:27:46;;;;;;;4.95;1.27;;;;;;;;;;5040130;28;20025;-81
2024/01/04 14:30:12;;;;;;;11.75;1.73;;;;;;;;;;5036974;28;20159;-85
2024/01/04 14:32:37;;;;;;;1.27;1.02;;;;;;;;;;5036382;28;20145;-84
2024/01/04 14:35:17;;;;;;;10.20;1.75;;;;;;;;;;5035060;28;20048;-88